Time;durP1;ratioP1;P1;durP2;ratioP2;P2;SDS_P1;SDS_P2;PMS_P1;PMS_P2;Temp;Humidity;BMP_temperature;BMP_pressure;BME280_temperature;BME280_humidity;BME280_pressure;Samples;Min_cycle;Max_cycle;Signal;HPM_P1;HPM_P2
2022/03/24 00:02:17;;;;;;;21.50;11.30;;;;;;;;;;5035106;28;20179;-83
2022/03/24 00:04:43;;;;;;;15.70;10.43;;;;;;;;;;5035467;28;20417;-83
2022/03/24 00:07:09;;;;;;;16.87;10.07;;;4.30;91.10;;;;;;5035529;28;20550;-83
2022/03/24 00:09:35;;;;;;;19.33;10.50;;;4.40;91.50;;;;;;5037191;28;20488;-83
2022/03/24 00:12:00;;;;;;;17.10;10.43;;;4.20;91.50;;;;;;5035533;28;20186;-83
2022/03/24 00:14:26;;;;;;;17.03;9.57;;;4.10;92.10;;;;;;5037147;28;20174;-83
2022/03/24 00:16:52;;;;;;;17.73;10.70;;;4.00;92.30;;;;;;5035643;28;20202;-83
2022/03/24 00:19:19;;;;;;;15.23;9.33;;;;;;;;;;5036411;28;20200;-83
2022/03/24 00:21:45;;;;;;;16.33;10.50;;;;;;;;;;5035558;28;20182;-83
2022/03/24 00:24:12;;;;;;;18.20;10.97;;;;;;;;;;5034698;28;20193;-83
2022/03/24 00:26:38;;;;;;;18.33;9.67;;;;;;;;;;5035282;28;20228;-83
2022/03/24 00:29:05;;;;;;;14.57;9.57;;;3.90;94.70;;;;;;5035385;28;20655;-83
2022/03/24 00:31:31;;;;;;;17.03;9.83;;;;;;;;;;5035262;28;20186;-83
2022/03/24 00:33:57;;;;;;;16.03;9.73;;;;;;;;;;5035379;28;20628;-83
2022/03/24 00:36:24;;;;;;;18.27;10.10;;;;;;;;;;5036836;28;20440;-83
2022/03/24 00:38:52;;;;;;;14.30;9.47;;;;;;;;;;5035905;28;20460;-83
2022/03/24 00:41:22;;;;;;;16.27;9.87;;;3.70;97.40;;;;;;5036168;28;20419;-83
2022/03/24 00:43:48;;;;;;;15.37;10.40;;;;;;;;;;5039614;28;20180;-84
2022/03/24 00:46:21;;;;;;;15.63;9.80;;;3.50;98.30;;;;;;5040873;28;20201;-83
2022/03/24 00:48:48;;;;;;;15.73;9.67;;;3.40;99.00;;;;;;5041166;28;20647;-83
2022/03/24 00:51:15;;;;;;;15.13;8.93;;;;;;;;;;5039908;28;20429;-83
2022/03/24 00:53:41;;;;;;;15.30;10.00;;;;;;;;;;5040065;28;20178;-83
2022/03/24 00:56:07;;;;;;;16.37;9.10;;;;;;;;;;5040080;28;20442;-83
2022/03/24 00:58:33;;;;;;;17.37;9.00;;;;;;;;;;5041375;28;20448;-83
2022/03/24 01:01:02;;;;;;;17.70;9.47;;;;;;;;;;5040877;28;20883;-83
2022/03/24 01:03:28;;;;;;;17.33;10.77;;;;;;;;;;5040302;28;20448;-84
2022/03/24 01:05:54;;;;;;;17.33;9.10;;;;;;;;;;5041610;28;20846;-83
2022/03/24 01:08:22;;;;;;;16.23;10.20;;;;;;;;;;5040788;28;20440;-84
2022/03/24 01:10:48;;;;;;;15.20;8.83;;;;;;;;;;5042725;28;20182;-83
2022/03/24 01:13:15;;;;;;;15.97;10.07;;;3.40;99.90;;;;;;5038577;28;20443;-83
2022/03/24 01:15:45;;;;;;;16.23;9.13;;;;;;;;;;5039784;28;20423;-83
2022/03/24 01:18:14;;;;;;;17.53;9.43;;;;;;;;;;5038293;28;20508;-83
2022/03/24 01:20:41;;;;;;;15.40;10.03;;;;;;;;;;5038103;28;20466;-83
2022/03/24 01:23:07;;;;;;;15.90;9.60;;;;;;;;;;5039737;28;20415;-83
2022/03/24 01:25:33;;;;;;;14.60;9.53;;;;;;;;;;5039525;28;20416;-83
2022/03/24 01:27:59;;;;;;;13.90;9.47;;;;;;;;;;5038139;28;20424;-83
2022/03/24 01:30:25;;;;;;;13.70;8.50;;;3.10;99.90;;;;;;5039491;28;20760;-83
2022/03/24 01:32:51;;;;;;;14.27;9.53;;;;;;;;;;5039540;28;20178;-83
2022/03/24 01:35:18;;;;;;;15.77;8.77;;;;;;;;;;5037813;28;20269;-83
2022/03/24 01:37:44;;;;;;;14.23;8.20;;;;;;;;;;5038963;28;20516;-83
2022/03/24 01:40:12;;;;;;;13.23;8.80;;;3.10;99.90;;;;;;5039191;28;20202;-83
2022/03/24 01:42:39;;;;;;;13.70;8.93;;;3.10;99.90;;;;;;5038480;28;20405;-83
2022/03/24 01:45:06;;;;;;;14.83;8.47;;;3.20;99.90;;;;;;5037644;28;20452;-83
2022/03/24 01:47:34;;;;;;;16.57;8.77;;;;;;;;;;5037174;28;20202;-83
2022/03/24 01:50:00;;;;;;;13.17;8.43;;;;;;;;;;5037249;28;20425;-83
2022/03/24 01:52:28;;;;;;;14.23;8.37;;;2.90;99.90;;;;;;5036837;28;20470;-83
2022/03/24 01:54:57;;;;;;;16.27;8.17;;;3.00;99.90;;;;;;5036552;28;20269;-83
2022/03/24 01:57:25;;;;;;;13.70;8.83;;;2.80;99.90;;;;;;5038463;28;20194;-83
2022/03/24 01:59:51;;;;;;;16.97;8.20;;;2.50;99.90;;;;;;5037391;28;20449;-83
2022/03/24 02:02:17;;;;;;;14.43;8.50;;;;;;;;;;5036963;28;20177;-83
2022/03/24 02:04:43;;;;;;;14.17;8.17;;;2.70;99.90;;;;;;5036519;28;20413;-83
2022/03/24 02:07:16;;;;;;;15.20;8.10;;;2.60;99.90;;;;;;5037107;28;20285;-83
2022/03/24 02:09:42;;;;;;;11.83;7.87;;;;;;;;;;5038357;28;20416;-83
2022/03/24 02:12:12;;;;;;;11.60;8.03;;;2.60;99.90;;;;;;5037072;28;20413;-83
2022/03/24 02:14:39;;;;;;;15.33;9.57;;;2.60;99.90;;;;;;5038609;28;20452;-83
2022/03/24 02:17:05;;;;;;;10.77;7.43;;;2.60;99.90;;;;;;5039567;28;20463;-83
2022/03/24 02:19:32;;;;;;;13.30;8.47;;;;;;;;;;5038771;28;20460;-83
2022/03/24 02:22:08;;;;;;;13.53;8.47;;;2.60;99.90;;;;;;5040519;28;20871;-83
2022/03/24 02:24:37;;;;;;;14.20;8.83;;;;;;;;;;5040529;28;20746;-83
2022/03/24 02:27:03;;;;;;;14.70;8.87;;;;;;;;;;5040459;28;20445;-83
2022/03/24 02:29:29;;;;;;;15.97;9.33;;;;;;;;;;5040986;28;20472;-83
2022/03/24 02:31:55;;;;;;;18.50;8.83;;;;;;;;;;5038678;28;20420;-83
2022/03/24 02:34:37;;;;;;;12.27;8.40;;;2.60;99.90;;;;;;5039168;28;20433;-83
2022/03/24 02:37:07;;;;;;;12.27;8.10;;;2.50;99.90;;;;;;5038488;28;20956;-83
2022/03/24 02:39:34;;;;;;;17.80;9.17;;;;;;;;;;5037724;28;20461;-83
2022/03/24 02:42:00;;;;;;;14.73;8.83;;;2.40;99.90;;;;;;5037965;28;20425;-83
2022/03/24 02:44:30;;;;;;;12.33;8.23;;;2.30;99.90;;;;;;5037533;28;20445;-83
2022/03/24 02:46:57;;;;;;;15.33;8.70;;;2.30;99.90;;;;;;5038076;28;21029;-83
2022/03/24 02:49:25;;;;;;;12.47;8.60;;;2.20;99.90;;;;;;5038759;28;20425;-84
2022/03/24 02:51:55;;;;;;;14.97;8.63;;;2.20;99.90;;;;;;5040229;28;20445;-84
2022/03/24 02:54:22;;;;;;;13.67;8.27;;;2.20;99.90;;;;;;5040000;28;20421;-83
2022/03/24 02:56:49;;;;;;;13.90;8.83;;;2.10;99.90;;;;;;5039311;28;20848;-83
2022/03/24 02:59:15;;;;;;;11.87;7.53;;;2.10;99.90;;;;;;5039660;28;20943;-83
2022/03/24 03:01:45;;;;;;;12.77;8.03;;;2.10;99.90;;;;;;5039695;28;20420;-83
2022/03/24 03:04:12;;;;;;;14.53;7.83;;;2.00;99.90;;;;;;5038819;28;20399;-83
2022/03/24 03:06:38;;;;;;;14.00;8.70;;;2.00;99.90;;;;;;5038330;28;20433;-83
2022/03/24 03:09:05;;;;;;;17.37;9.37;;;2.00;99.90;;;;;;5037983;28;20437;-83
2022/03/24 03:11:31;;;;;;;14.03;8.17;;;;;;;;;;5039229;28;20428;-83
2022/03/24 03:13:58;;;;;;;12.73;7.90;;;;;;;;;;5037249;28;20424;-83
2022/03/24 03:16:25;;;;;;;13.03;7.20;;;;;;;;;;5038539;28;20440;-83
2022/03/24 03:18:51;;;;;;;12.20;7.93;;;;;;;;;;5039893;28;20455;-83
2022/03/24 03:21:17;;;;;;;13.40;8.43;;;;;;;;;;5038047;28;20429;-83
2022/03/24 03:23:44;;;;;;;13.37;8.67;;;1.60;99.90;;;;;;5039546;28;20417;-83
2022/03/24 03:26:11;;;;;;;13.07;8.13;;;1.60;99.90;;;;;;5041311;28;20474;-83
2022/03/24 03:28:38;;;;;;;11.90;8.03;;;;;;;;;;5041104;28;20532;-83
2022/03/24 03:31:05;;;;;;;14.67;8.83;;;;;;;;;;5039424;28;20412;-83
2022/03/24 03:33:31;;;;;;;15.97;7.63;;;;;;;;;;5038504;28;20434;-83
2022/03/24 03:35:57;;;;;;;13.97;7.63;;;;;;;;;;5039102;28;20448;-84
2022/03/24 03:38:24;;;;;;;10.80;7.80;;;;;;;;;;5038768;28;20417;-83
2022/03/24 03:40:52;;;;;;;10.77;7.50;;;1.60;99.90;;;;;;5038555;28;20456;-83
2022/03/24 03:43:18;;;;;;;11.40;7.13;;;;;;;;;;5039326;28;20527;-84
2022/03/24 03:45:44;;;;;;;14.40;7.27;;;1.70;99.90;;;;;;5036608;28;20449;-83
2022/03/24 03:48:10;;;;;;;13.43;7.13;;;;;;;;;;5039342;28;20432;-83
2022/03/24 03:50:37;;;;;;;13.03;8.33;;;1.80;99.90;;;;;;5035387;28;20182;-83
2022/03/24 03:53:04;;;;;;;12.53;7.60;;;1.90;99.90;;;;;;5034983;28;20512;-83
2022/03/24 03:55:30;;;;;;;11.97;6.60;;;1.80;99.90;;;;;;5036333;28;20416;-83
2022/03/24 03:57:56;;;;;;;13.47;7.57;;;;;;;;;;5036509;28;20433;-83
2022/03/24 04:03:07;;;;;;;11.60;6.87;;;1.70;99.90;;;;;;5037620;28;20408;-83
2022/03/24 04:05:33;;;;;;;10.67;6.83;;;1.60;99.90;;;;;;5036966;28;20417;-83
2022/03/24 04:08:00;;;;;;;10.17;6.33;;;1.70;99.90;;;;;;5035765;28;20328;-83
2022/03/24 04:10:27;;;;;;;9.97;6.60;;;1.60;99.90;;;;;;5035213;28;20519;-83
2022/03/24 04:12:55;;;;;;;13.13;6.43;;;1.60;99.90;;;;;;5034317;28;20942;-83
2022/03/24 04:15:23;;;;;;;11.03;7.23;;;2.10;99.90;;;;;;5035913;28;20436;-83
2022/03/24 04:17:50;;;;;;;18.93;7.33;;;1.60;99.90;;;;;;5034056;28;20988;-83
2022/03/24 04:20:20;;;;;;;11.17;7.03;;;;;;;;;;5034571;28;20496;-83
2022/03/24 04:22:48;;;;;;;17.47;7.80;;;1.70;99.90;;;;;;5036209;28;20393;-83
2022/03/24 04:25:14;;;;;;;12.67;7.00;;;;;;;;;;5035063;28;20413;-83
2022/03/24 04:27:41;;;;;;;9.17;7.20;;;1.70;99.90;;;;;;5034442;28;20429;-83
2022/03/24 04:30:08;;;;;;;10.80;7.07;;;1.70;99.90;;;;;;5036539;28;20413;-83
2022/03/24 04:32:34;;;;;;;10.40;6.47;;;;;;;;;;5036061;28;20428;-83
2022/03/24 04:35:00;;;;;;;10.90;6.50;;;1.70;99.90;;;;;;5035133;28;20421;-83
2022/03/24 04:37:26;;;;;;;13.33;7.07;;;;;;;;;;5034913;28;20285;-83
2022/03/24 04:39:52;;;;;;;9.37;6.00;;;;;;;;;;5034951;28;20489;-83
2022/03/24 04:42:18;;;;;;;11.90;6.47;;;1.60;99.90;;;;;;5035237;28;20443;-83
2022/03/24 04:44:45;;;;;;;10.10;6.77;;;;;;;;;;5034685;28;20273;-83
2022/03/24 04:47:11;;;;;;;11.43;6.73;;;;;;;;;;5036722;28;20185;-83
2022/03/24 04:49:37;;;;;;;13.00;6.90;;;;;;;;;;5037412;28;20536;-84
2022/03/24 04:52:04;;;;;;;12.87;7.33;;;;;;;;;;5038286;28;20492;-83
2022/03/24 04:54:30;;;;;;;12.50;6.50;;;;;;;;;;5036414;28;20416;-84
2022/03/24 04:56:57;;;;;;;11.77;7.13;;;;;;;;;;5038690;28;20432;-84
2022/03/24 04:59:23;;;;;;;12.50;7.03;;;;;;;;;;5036132;28;21057;-83
2022/03/24 05:01:49;;;;;;;11.13;6.97;;;1.40;99.90;;;;;;5037387;28;20417;-83
2022/03/24 05:04:18;;;;;;;12.17;6.43;;;;;;;;;;5036159;28;20508;-83
2022/03/24 05:06:44;;;;;;;15.30;7.70;;;;;;;;;;5039626;28;20257;-82
2022/03/24 05:09:10;;;;;;;11.77;7.23;;;;;;;;;;5036698;28;20443;-83
2022/03/24 05:11:36;;;;;;;9.43;6.83;;;;;;;;;;5035806;28;20445;-83
2022/03/24 05:14:02;;;;;;;12.73;7.13;;;;;;;;;;5035837;28;20421;-84
2022/03/24 05:16:28;;;;;;;10.37;6.30;;;1.10;99.90;;;;;;5036593;28;20447;-83
2022/03/24 05:18:54;;;;;;;11.57;7.37;;;;;;;;;;5037275;28;20189;-81
2022/03/24 05:21:21;;;;;;;10.83;6.77;;;;;;;;;;5039944;28;20413;-83
2022/03/24 05:23:47;;;;;;;10.70;7.17;;;;;;;;;;5039551;28;20400;-84
2022/03/24 05:26:13;;;;;;;13.23;6.17;;;;;;;;;;5040542;28;20440;-83
2022/03/24 05:28:39;;;;;;;10.77;6.73;;;;;;;;;;5045284;28;20423;-83
2022/03/24 05:31:06;;;;;;;12.57;8.03;;;;;;;;;;5042113;28;20409;-83
2022/03/24 05:33:33;;;;;;;10.50;6.23;;;1.10;99.90;;;;;;5042234;28;20485;-83
2022/03/24 05:35:59;;;;;;;9.77;6.53;;;;;;;;;;5041886;28;20460;-83
2022/03/24 05:38:26;;;;;;;18.50;6.90;;;1.10;99.90;;;;;;5040345;28;20414;-83
2022/03/24 05:40:52;;;;;;;9.63;5.63;;;;;;;;;;5039917;28;20225;-83
2022/03/24 05:43:18;;;;;;;9.67;6.07;;;;;;;;;;5040049;28;20459;-83
2022/03/24 05:45:44;;;;;;;8.53;5.97;;;;;;;;;;5041638;28;20730;-84
2022/03/24 05:48:10;;;;;;;11.33;6.40;;;;;;;;;;5041442;28;20448;-84
2022/03/24 05:50:36;;;;;;;13.67;6.10;;;1.30;99.90;;;;;;5041000;28;20534;-83
2022/03/24 05:53:02;;;;;;;8.80;5.77;;;1.30;99.90;;;;;;5040505;28;20186;-84
2022/03/24 05:55:29;;;;;;;9.10;5.97;;;;;;;;;;5040647;28;20273;-84
2022/03/24 05:57:55;;;;;;;10.23;5.93;;;;;;;;;;5040242;28;20440;-84
2022/03/24 06:00:21;;;;;;;9.37;6.60;;;;;;;;;;5042798;28;20457;-84
2022/03/24 06:02:47;;;;;;;8.80;5.87;;;;;;;;;;5039978;28;20407;-84
2022/03/24 06:05:14;;;;;;;10.33;6.03;;;1.60;99.90;;;;;;5042303;28;20439;-84
2022/03/24 06:07:40;;;;;;;11.00;6.80;;;;;;;;;;5040314;28;20452;-84
2022/03/24 06:10:08;;;;;;;9.53;5.53;;;1.70;99.90;;;;;;5040126;28;20445;-86
2022/03/24 06:12:35;;;;;;;9.07;4.63;;;1.80;99.90;;;;;;5041776;28;20467;-85
2022/03/24 06:15:04;;;;;;;6.53;4.53;;;;;;;;;;5042931;28;20805;-86
2022/03/24 06:17:30;;;;;;;9.00;5.80;;;;;;;;;;5041467;28;20443;-86
2022/03/24 06:19:56;;;;;;;9.20;5.63;;;;;;;;;;5039400;28;20453;-85
2022/03/24 06:22:22;;;;;;;7.67;5.00;;;;;;;;;;5040855;28;20427;-85
2022/03/24 06:24:48;;;;;;;10.00;5.23;;;2.20;99.90;;;;;;5042616;28;20934;-85
2022/03/24 06:27:16;;;;;;;8.90;5.43;;;2.20;99.90;;;;;;5046128;28;20289;-85
2022/03/24 06:29:41;;;;;;;9.10;5.90;;;2.40;99.90;;;;;;5041200;28;20182;-86
2022/03/24 06:32:08;;;;;;;13.63;5.97;;;2.50;99.90;;;;;;5041284;28;20181;-86
2022/03/24 06:34:34;;;;;;;7.70;4.87;;;2.50;99.90;;;;;;5039530;28;20189;-84
2022/03/24 06:37:02;;;;;;;8.10;5.53;;;2.70;99.90;;;;;;5040805;28;20198;-86
2022/03/24 06:39:28;;;;;;;6.80;4.90;;;2.80;99.90;;;;;;5039978;28;20464;-85
2022/03/24 06:41:55;;;;;;;10.53;5.97;;;;;;;;;;5038534;28;20815;-85
2022/03/24 06:44:21;;;;;;;14.70;6.03;;;2.90;99.90;;;;;;5041625;28;20441;-86
2022/03/24 06:46:48;;;;;;;10.90;6.37;;;;;;;;;;5041299;28;20562;-85
2022/03/24 06:49:15;;;;;;;11.40;6.27;;;3.20;99.90;;;;;;5040316;28;20660;-86
2022/03/24 06:51:41;;;;;;;9.13;6.10;;;;;;;;;;5040130;28;20413;-85
2022/03/24 06:54:07;;;;;;;10.80;6.13;;;3.40;99.90;;;;;;5039406;28;20416;-86
2022/03/24 06:56:33;;;;;;;8.77;6.03;;;;;;;;;;5039487;28;20504;-86
2022/03/24 06:58:59;;;;;;;9.23;5.57;;;3.80;99.90;;;;;;5041176;28;21009;-86
2022/03/24 07:01:25;;;;;;;11.30;5.80;;;3.80;99.90;;;;;;5041594;28;20421;-86
2022/03/24 07:03:51;;;;;;;10.23;5.63;;;;;;;;;;5041776;28;20182;-85
2022/03/24 07:06:17;;;;;;;12.03;6.10;;;4.20;99.90;;;;;;5042553;28;20238;-84
2022/03/24 07:08:43;;;;;;;9.73;5.80;;;;;;;;;;5042411;28;20217;-85
2022/03/24 07:11:09;;;;;;;7.43;5.27;;;4.90;99.90;;;;;;5041986;28;20185;-86
2022/03/24 07:13:35;;;;;;;9.53;5.77;;;4.90;99.90;;;;;;5040785;28;20178;-87
2022/03/24 07:16:00;;;;;;;11.50;6.33;;;5.10;99.90;;;;;;5040940;28;20202;-85
2022/03/24 07:18:26;;;;;;;10.37;5.57;;;5.40;99.90;;;;;;5040839;28;20174;-85
2022/03/24 07:20:52;;;;;;;9.63;6.40;;;5.40;99.90;;;;;;5040296;28;20213;-85
2022/03/24 07:23:17;;;;;;;10.47;6.10;;;5.60;99.90;;;;;;5040306;28;20179;-85
2022/03/24 07:25:44;;;;;;;8.37;6.33;;;5.80;99.90;;;;;;5040219;28;20179;-86
2022/03/24 07:28:11;;;;;;;11.43;6.17;;;6.20;99.90;;;;;;5045268;28;20182;-85
2022/03/24 07:30:37;;;;;;;11.93;7.03;;;6.70;99.90;;;;;;5047141;28;20185;-86
2022/03/24 07:33:04;;;;;;;10.67;6.43;;;7.60;99.90;;;;;;5045348;28;20214;-85
2022/03/24 07:35:33;;;;;;;10.30;5.90;;;7.90;99.90;;;;;;5043053;28;20649;-86
2022/03/24 07:37:58;;;;;;;11.57;6.37;;;8.40;98.70;;;;;;5043297;28;20188;-85
2022/03/24 07:40:24;;;;;;;8.77;6.27;;;8.70;97.00;;;;;;5042318;28;20633;-86
2022/03/24 07:42:52;;;;;;;11.20;6.73;;;9.00;95.30;;;;;;5043232;28;20198;-86
2022/03/24 07:45:20;;;;;;;9.43;6.47;;;9.20;94.10;;;;;;5044119;28;20203;-86
2022/03/24 07:48:12;;;;;;;14.40;6.47;;;9.40;92.90;;;;;;5044479;28;20200;-86
2022/03/24 07:50:41;;;;;;;10.13;5.70;;;9.60;91.60;;;;;;5040297;28;20223;-86
2022/03/24 07:53:16;;;;;;;8.47;5.93;;;9.90;90.80;;;;;;5054388;28;20173;-85
2022/03/24 07:55:43;;;;;;;7.60;5.37;;;10.70;88.70;;;;;;5044611;28;20598;-85
2022/03/24 07:58:10;;;;;;;9.37;5.43;;;11.40;84.90;;;;;;5037904;28;20186;-86
2022/03/24 08:00:37;;;;;;;9.10;6.00;;;11.90;81.40;;;;;;5037670;28;20316;-85
2022/03/24 08:03:06;;;;;;;9.37;5.70;;;12.30;77.90;;;;;;5037388;28;20181;-85
2022/03/24 08:05:32;;;;;;;9.33;5.50;;;12.60;76.30;;;;;;5038089;28;20248;-85
2022/03/24 08:07:58;;;;;;;9.17;5.43;;;13.30;72.50;;;;;;5038816;28;20218;-86
2022/03/24 08:10:24;;;;;;;12.53;6.23;;;13.90;70.50;;;;;;5039301;28;20612;-86
2022/03/24 08:12:50;;;;;;;10.77;5.77;;;14.20;65.60;;;;;;5037488;28;20186;-86
2022/03/24 08:15:16;;;;;;;10.37;6.30;;;14.30;63.40;;;;;;5037821;28;20193;-86
2022/03/24 08:17:42;;;;;;;9.47;6.00;;;14.20;60.70;;;;;;5039189;28;20202;-86
2022/03/24 08:20:08;;;;;;;11.43;6.20;;;14.20;61.40;;;;;;5037757;28;20301;-86
2022/03/24 08:22:33;;;;;;;8.57;5.93;;;14.60;60.80;;;;;;5038371;28;20184;-86
2022/03/24 08:24:59;;;;;;;8.17;5.90;;;14.90;59.80;;;;;;5037689;28;20187;-86
2022/03/24 08:27:25;;;;;;;10.67;7.27;;;15.00;58.90;;;;;;5039117;28;20548;-86
2022/03/24 08:29:51;;;;;;;10.77;6.60;;;15.20;57.10;;;;;;5039172;28;20176;-86
2022/03/24 08:32:17;;;;;;;8.97;6.00;;;15.60;56.40;;;;;;5038079;28;20186;-86
2022/03/24 08:34:42;;;;;;;8.33;6.33;;;16.00;56.30;;;;;;5039358;28;20184;-85
2022/03/24 08:37:08;;;;;;;9.97;7.00;;;16.80;56.30;;;;;;5039822;28;20225;-86
2022/03/24 08:39:34;;;;;;;10.47;7.10;;;17.40;53.40;;;;;;5038056;28;20211;-86
2022/03/24 08:42:00;;;;;;;12.40;7.07;;;17.80;52.40;;;;;;5039661;28;20756;-86
2022/03/24 08:44:26;;;;;;;9.73;7.70;;;17.90;51.00;;;;;;5040138;28;20311;-86
2022/03/24 08:46:52;;;;;;;12.70;7.10;;;17.80;48.90;;;;;;5040297;28;20197;-86
2022/03/24 08:49:18;;;;;;;8.90;7.20;;;18.30;49.10;;;;;;5041391;28;20188;-85
2022/03/24 08:51:45;;;;;;;11.50;7.67;;;18.50;49.60;;;;;;5042492;28;20190;-84
2022/03/24 08:54:12;;;;;;;9.00;7.43;;;18.50;51.40;;;;;;5041466;28;20193;-84
2022/03/24 08:56:37;;;;;;;8.63;7.47;;;18.90;47.80;;;;;;5041280;28;20284;-84
2022/03/24 08:59:04;;;;;;;8.97;7.10;;;19.40;49.00;;;;;;5041314;28;20214;-85
2022/03/24 09:01:30;;;;;;;9.13;7.30;;;19.30;48.30;;;;;;5042229;28;20178;-85
2022/03/24 09:03:56;;;;;;;13.53;8.10;;;18.60;47.10;;;;;;5044615;28;20181;-85
2022/03/24 09:06:22;;;;;;;9.30;7.50;;;18.00;50.60;;;;;;5049143;28;20755;-85
2022/03/24 09:08:49;;;;;;;10.57;8.17;;;18.50;49.80;;;;;;5046164;28;20682;-85
2022/03/24 09:11:15;;;;;;;8.33;7.50;;;18.80;50.20;;;;;;5045876;28;20189;-85
2022/03/24 09:13:41;;;;;;;8.80;7.43;;;19.20;50.50;;;;;;5045167;28;20178;-85
2022/03/24 09:16:07;;;;;;;9.23;7.77;;;19.40;48.90;;;;;;5046294;28;20194;-84
2022/03/24 09:18:34;;;;;;;8.77;7.47;;;19.50;49.90;;;;;;5047378;28;20174;-85
2022/03/24 09:21:00;;;;;;;9.23;7.83;;;19.30;48.30;;;;;;5047398;28;20203;-85
2022/03/24 09:23:27;;;;;;;11.30;7.13;;;19.50;50.10;;;;;;5045673;28;20187;-85
2022/03/24 09:25:54;;;;;;;8.60;7.60;;;19.60;48.30;;;;;;5045511;28;20185;-85
2022/03/24 09:28:21;;;;;;;13.17;7.57;;;19.50;48.70;;;;;;5048540;28;20172;-85
2022/03/24 09:30:48;;;;;;;8.40;7.50;;;19.20;47.90;;;;;;5048418;28;20186;-85
2022/03/24 09:33:14;;;;;;;8.70;7.80;;;19.20;48.80;;;;;;5057607;28;20172;-83
2022/03/24 09:35:40;;;;;;;9.80;7.57;;;19.30;48.50;;;;;;5059871;28;20174;-84
2022/03/24 09:38:05;;;;;;;8.43;7.53;;;19.30;49.40;;;;;;5059398;28;20165;-84
2022/03/24 09:40:33;;;;;;;12.13;8.23;;;19.30;46.70;;;;;;5046999;28;20218;-85
2022/03/24 09:43:01;;;;;;;10.60;8.20;;;19.40;48.00;;;;;;5045317;28;20175;-85
2022/03/24 09:45:27;;;;;;;9.27;8.27;;;19.90;46.80;;;;;;5045761;28;20208;-85
2022/03/24 09:47:53;;;;;;;9.70;8.30;;;20.10;47.20;;;;;;5046819;28;20204;-85
2022/03/24 09:50:20;;;;;;;9.23;7.80;;;20.00;45.20;;;;;;5045636;28;20228;-85
2022/03/24 09:52:46;;;;;;;8.57;7.70;;;20.30;44.90;;;;;;5046377;28;20181;-84
2022/03/24 09:55:12;;;;;;;14.50;8.27;;;20.40;44.80;;;;;;5044895;28;20182;-84
2022/03/24 09:57:42;;;;;;;9.80;7.80;;;20.70;44.90;;;;;;5045461;28;20217;-85
2022/03/24 10:00:08;;;;;;;9.87;7.70;;;20.90;44.00;;;;;;5043448;28;20208;-85
2022/03/24 10:02:34;;;;;;;9.33;7.87;;;20.60;43.20;;;;;;5043949;28;20170;-85
2022/03/24 10:05:01;;;;;;;9.33;7.97;;;20.70;42.50;;;;;;5044265;28;20489;-85
2022/03/24 10:07:29;;;;;;;11.30;7.33;;;21.00;43.60;;;;;;5044473;28;20301;-85
2022/03/24 10:09:56;;;;;;;8.63;7.73;;;20.90;41.50;;;;;;5044812;28;20645;-85
2022/03/24 10:12:34;;;;;;;9.40;7.87;;;20.60;41.70;;;;;;5044275;28;20179;-85
2022/03/24 10:15:03;;;;;;;7.73;7.03;;;20.90;42.10;;;;;;5044353;28;20263;-85
2022/03/24 10:17:29;;;;;;;11.20;7.97;;;20.90;41.10;;;;;;5045118;28;20275;-85
2022/03/24 10:20:14;;;;;;;8.87;7.97;;;20.60;40.00;;;;;;5044287;28;20255;-85
2022/03/24 10:22:55;;;;;;;7.77;7.03;;;20.40;40.70;;;;;;5044787;28;20175;-85
2022/03/24 10:25:29;;;;;;;7.93;7.10;;;20.50;41.60;;;;;;5046248;28;20253;-85
2022/03/24 10:28:13;;;;;;;9.10;7.57;;;20.90;40.10;;;;;;5048378;28;20195;-85
2022/03/24 10:30:52;;;;;;;8.40;7.53;;;21.20;40.80;;;;;;5047342;28;20265;-85
2022/03/24 10:33:35;;;;;;;10.03;7.17;;;21.20;39.40;;;;;;5048764;28;20243;-84
2022/03/24 10:36:17;;;;;;;7.70;7.00;;;21.10;38.90;;;;;;5050359;28;20202;-85
2022/03/24 10:38:45;;;;;;;11.73;7.73;;;20.80;37.90;;;;;;5042105;28;20176;-84
2022/03/24 10:41:31;;;;;;;9.47;7.03;;;20.40;39.40;;;;;;5041616;28;20184;-85
2022/03/24 10:43:59;;;;;;;7.83;7.13;;;21.00;38.40;;;;;;5041741;28;20199;-82
2022/03/24 10:46:33;;;;;;;8.67;7.17;;;21.00;38.80;;;;;;5041173;28;20195;-84
2022/03/24 10:49:22;;;;;;;12.67;7.57;;;21.40;38.60;;;;;;5042272;28;20184;-84
2022/03/24 10:51:49;;;;;;;7.90;7.07;;;21.60;38.50;;;;;;5040399;28;20728;-85
2022/03/24 10:54:18;;;;;;;8.47;7.67;;;21.40;37.20;;;;;;5041205;28;20654;-84
2022/03/24 10:56:57;;;;;;;8.77;7.40;;;21.30;37.80;;;;;;5039426;28;20204;-84
2022/03/24 10:59:29;;;;;;;8.90;7.53;;;21.50;38.50;;;;;;5040165;28;20174;-85
2022/03/24 11:01:55;;;;;;;8.70;7.80;;;21.70;38.70;;;;;;5040785;28;20177;-85
2022/03/24 11:04:21;;;;;;;17.67;8.53;;;22.10;36.10;;;;;;5042274;28;20187;-84
2022/03/24 11:06:51;;;;;;;9.83;8.60;;;21.80;36.30;;;;;;5040581;28;20200;-84
2022/03/24 11:09:31;;;;;;;8.50;7.63;;;21.40;38.80;;;;;;5041222;28;20225;-83
2022/03/24 11:12:26;;;;;;;8.67;7.60;;;21.50;37.40;;;;;;5043998;28;20662;-85
2022/03/24 11:14:54;;;;;;;12.23;7.60;;;21.70;37.60;;;;;;5042098;28;20241;-86
2022/03/24 11:17:24;;;;;;;15.63;8.30;;;21.50;38.50;;;;;;5042227;28;20688;-84
2022/03/24 11:20:03;;;;;;;8.13;7.33;;;21.80;38.60;;;;;;5040506;28;20169;-85
2022/03/24 11:23:00;;;;;;;7.27;6.57;;;22.10;39.00;;;;;;5041987;28;20164;-84
2022/03/24 11:25:28;;;;;;;10.40;7.23;;;22.10;39.10;;;;;;5042426;28;20185;-84
2022/03/24 11:27:54;;;;;;;7.13;6.43;;;22.20;37.80;;;;;;5042338;28;20223;-84
2022/03/24 11:30:22;;;;;;;8.63;6.77;;;22.60;36.80;;;;;;5042486;28;20207;-84
2022/03/24 11:32:52;;;;;;;6.77;5.67;;;22.70;35.70;;;;;;5045755;28;20176;-84
2022/03/24 11:35:20;;;;;;;10.57;7.40;;;22.30;35.10;;;;;;5047586;28;20172;-85
2022/03/24 11:37:47;;;;;;;9.40;7.40;;;22.50;37.40;;;;;;5053119;28;20196;-85
2022/03/24 11:40:28;;;;;;;10.03;7.20;;;22.20;36.30;;;;;;5056570;28;20185;-84
2022/03/24 11:43:03;;;;;;;10.80;7.57;;;21.70;37.30;;;;;;5057109;28;20230;-84
2022/03/24 11:45:39;;;;;;;7.90;7.07;;;21.90;37.60;;;;;;5038880;28;20171;-85
2022/03/24 11:48:07;;;;;;;11.30;7.00;;;22.70;37.20;;;;;;5038459;28;20209;-85
2022/03/24 11:50:45;;;;;;;8.63;7.83;;;23.50;36.50;;;;;;5039661;28;20559;-85
2022/03/24 11:53:14;;;;;;;10.07;8.10;;;24.00;36.10;;;;;;5039278;28;20174;-85
2022/03/24 11:56:07;;;;;;;8.63;7.77;;;23.90;36.70;;;;;;5039293;28;20672;-84
2022/03/24 11:59:06;;;;;;;8.23;7.43;;;24.20;35.40;;;;;;5037860;28;20709;-84
2022/03/24 12:01:33;;;;;;;9.07;7.77;;;24.30;33.90;;;;;;5036584;28;20191;-82
2022/03/24 12:04:08;;;;;;;10.33;8.10;;;23.90;34.80;;;;;;5038894;28;20553;-82
2022/03/24 12:06:48;;;;;;;7.60;6.90;;;24.30;33.00;;;;;;5038825;28;20198;-84
2022/03/24 12:09:21;;;;;;;10.33;8.13;;;24.40;35.80;;;;;;5038485;28;20290;-82
2022/03/24 12:12:02;;;;;;;8.23;7.30;;;23.80;33.80;;;;;;5039019;28;20155;-82
2022/03/24 12:14:31;;;;;;;9.80;8.03;;;23.20;33.90;;;;;;5038491;28;20176;-81
2022/03/24 12:17:02;;;;;;;8.77;7.73;;;23.00;36.40;;;;;;5038705;28;20195;-81
2022/03/24 12:19:41;;;;;;;9.53;7.87;;;24.40;32.80;;;;;;5037476;28;20629;-82
2022/03/24 12:22:32;;;;;;;9.00;7.50;;;24.50;34.20;;;;;;5037508;28;20182;-82
2022/03/24 12:25:02;;;;;;;11.17;7.30;;;25.20;34.80;;;;;;5035636;28;20198;-82
2022/03/24 12:27:29;;;;;;;10.50;7.33;;;25.80;33.80;;;;;;5037188;28;20256;-83
2022/03/24 12:30:18;;;;;;;9.33;7.43;;;26.30;32.40;;;;;;5040873;28;20199;-83
2022/03/24 12:33:06;;;;;;;8.80;7.90;;;26.60;31.20;;;;;;5050876;28;20272;-85
2022/03/24 12:35:51;;;;;;;7.93;7.13;;;25.90;31.40;;;;;;5042299;28;20174;-83
2022/03/24 12:38:20;;;;;;;10.83;7.17;;;25.30;33.60;;;;;;5045422;28;20579;-82
2022/03/24 12:41:04;;;;;;;8.80;7.93;;;25.30;31.60;;;;;;5046181;28;20176;-82
2022/03/24 12:43:46;;;;;;;7.53;6.83;;;25.50;31.30;;;;;;5045881;28;20180;-83
2022/03/24 12:46:20;;;;;;;10.20;6.43;;;26.00;30.90;;;;;;5046360;28;20286;-82
2022/03/24 12:48:46;;;;;;;7.77;6.93;;;26.30;30.60;;;;;;5046682;28;20188;-82
2022/03/24 12:51:21;;;;;;;21.47;6.93;;;26.50;31.80;;;;;;5046224;28;20199;-81
2022/03/24 12:54:17;;;;;;;7.67;6.17;;;26.60;30.40;;;;;;5043345;28;20639;-82
2022/03/24 12:56:43;;;;;;;8.23;6.87;;;26.80;30.50;;;;;;5042228;28;20214;-82
2022/03/24 12:59:10;;;;;;;6.70;6.00;;;26.60;29.30;;;;;;5042007;28;20195;-81
2022/03/24 13:01:37;;;;;;;7.10;6.40;;;26.70;30.20;;;;;;5042235;28;20175;-81
2022/03/24 13:04:09;;;;;;;7.47;6.57;;;26.40;30.60;;;;;;5040859;28;20191;-81
2022/03/24 13:06:38;;;;;;;7.20;5.80;;;26.90;30.30;;;;;;5042016;28;20197;-81
2022/03/24 13:09:18;;;;;;;6.37;5.77;;;26.50;29.70;;;;;;5041623;28;20244;-82
2022/03/24 13:11:56;;;;;;;9.87;5.90;;;26.80;29.00;;;;;;5041666;28;20235;-81
2022/03/24 13:14:23;;;;;;;10.00;6.23;;;27.00;29.50;;;;;;5040600;28;20175;-81
2022/03/24 13:16:59;;;;;;;10.17;6.20;;;27.30;28.60;;;;;;5040479;28;20191;-82
2022/03/24 13:19:26;;;;;;;6.67;5.97;;;27.00;28.80;;;;;;5041859;28;20279;-81
2022/03/24 13:21:51;;;;;;;8.53;6.40;;;26.70;29.30;;;;;;5041434;28;20177;-81
2022/03/24 13:24:22;;;;;;;6.77;5.67;;;26.50;28.90;;;;;;5039388;28;20183;-80
2022/03/24 13:27:02;;;;;;;8.93;6.40;;;26.10;28.80;;;;;;5040017;28;20201;-80